sensor_id;sensor_type;location;lat;lon;timestamp;temperature;humidity
17236;DHT22;8734;59.272;17.780;2022-08-05T00:01:30;18.70;99.90
17236;DHT22;8734;59.272;17.780;2022-08-05T00:04:15;18.70;99.90
17236;DHT22;8734;59.272;17.780;2022-08-05T00:06:43;18.70;99.90
17236;DHT22;8734;59.272;17.780;2022-08-05T00:09:14;18.70;99.90
17236;DHT22;8734;59.272;17.780;2022-08-05T00:11:46;18.60;99.90
17236;DHT22;8734;59.272;17.780;2022-08-05T00:14:25;18.60;99.90
17236;DHT22;8734;59.272;17.780;2022-08-05T00:16:57;18.60;99.90
17236;DHT22;8734;59.272;17.780;2022-08-05T00:19:28;18.70;99.90
17236;DHT22;8734;59.272;17.780;2022-08-05T00:22:06;18.60;99.90
17236;DHT22;8734;59.272;17.780;2022-08-05T00:24:38;18.60;99.90
17236;DHT22;8734;59.272;17.780;2022-08-05T00:27:08;18.60;99.90
17236;DHT22;8734;59.272;17.780;2022-08-05T00:29:42;18.60;99.90
17236;DHT22;8734;59.272;17.780;2022-08-05T00:32:11;18.50;99.90
17236;DHT22;8734;59.272;17.780;2022-08-05T00:34:43;18.50;99.90
17236;DHT22;8734;59.272;17.780;2022-08-05T00:37:31;18.50;99.90
17236;DHT22;8734;59.272;17.780;2022-08-05T00:40:22;18.50;99.90
17236;DHT22;8734;59.272;17.780;2022-08-05T00:42:55;18.50;99.90
17236;DHT22;8734;59.272;17.780;2022-08-05T00:45:25;18.50;99.90
17236;DHT22;8734;59.272;17.780;2022-08-05T00:48:05;18.50;99.90
17236;DHT22;8734;59.272;17.780;2022-08-05T00:50:37;18.50;99.90
17236;DHT22;8734;59.272;17.780;2022-08-05T00:53:10;18.60;99.90
17236;DHT22;8734;59.272;17.780;2022-08-05T00:55:59;18.60;99.90
17236;DHT22;8734;59.272;17.780;2022-08-05T00:58:28;18.60;99.90
17236;DHT22;8734;59.272;17.780;2022-08-05T01:00:56;18.60;99.90
17236;DHT22;8734;59.272;17.780;2022-08-05T01:03:26;18.60;99.90
17236;DHT22;8734;59.272;17.780;2022-08-05T01:05:59;18.60;99.90
17236;DHT22;8734;59.272;17.780;2022-08-05T01:08:31;18.60;99.90
17236;DHT22;8734;59.272;17.780;2022-08-05T01:11:14;18.60;99.90
17236;DHT22;8734;59.272;17.780;2022-08-05T01:13:56;18.60;99.90
17236;DHT22;8734;59.272;17.780;2022-08-05T01:16:33;18.60;99.90
17236;DHT22;8734;59.272;17.780;2022-08-05T01:19:22;18.70;99.90
17236;DHT22;8734;59.272;17.780;2022-08-05T01:22:20;18.70;99.90
17236;DHT22;8734;59.272;17.780;2022-08-05T01:25:04;18.70;99.90
17236;DHT22;8734;59.272;17.780;2022-08-05T01:28:02;18.70;99.90
17236;DHT22;8734;59.272;17.780;2022-08-05T01:30:37;18.70;99.90
17236;DHT22;8734;59.272;17.780;2022-08-05T01:33:22;18.70;99.90
17236;DHT22;8734;59.272;17.780;2022-08-05T01:35:53;18.70;99.90
17236;DHT22;8734;59.272;17.780;2022-08-05T01:38:25;18.70;99.90
17236;DHT22;8734;59.272;17.780;2022-08-05T01:40:57;18.70;99.90
17236;DHT22;8734;59.272;17.780;2022-08-05T01:43:31;18.80;99.90
17236;DHT22;8734;59.272;17.780;2022-08-05T01:46:02;18.90;99.90
17236;DHT22;8734;59.272;17.780;2022-08-05T01:48:43;18.80;99.90
17236;DHT22;8734;59.272;17.780;2022-08-05T01:51:16;18.80;99.90
17236;DHT22;8734;59.272;17.780;2022-08-05T01:53:47;18.80;99.90
17236;DHT22;8734;59.272;17.780;2022-08-05T01:56:27;18.80;99.90
17236;DHT22;8734;59.272;17.780;2022-08-05T01:59:20;18.80;99.90
17236;DHT22;8734;59.272;17.780;2022-08-05T02:01:51;18.80;99.90
17236;DHT22;8734;59.272;17.780;2022-08-05T02:04:25;18.90;99.90
17236;DHT22;8734;59.272;17.780;2022-08-05T02:06:55;18.90;99.90
17236;DHT22;8734;59.272;17.780;2022-08-05T02:09:25;19.00;99.90
17236;DHT22;8734;59.272;17.780;2022-08-05T02:11:59;19.00;99.90
17236;DHT22;8734;59.272;17.780;2022-08-05T02:14:33;19.00;99.90
17236;DHT22;8734;59.272;17.780;2022-08-05T02:17:09;19.00;99.90
17236;DHT22;8734;59.272;17.780;2022-08-05T02:20:02;19.00;99.90
17236;DHT22;8734;59.272;17.780;2022-08-05T02:22:35;19.10;99.90
17236;DHT22;8734;59.272;17.780;2022-08-05T02:25:13;19.00;99.90
17236;DHT22;8734;59.272;17.780;2022-08-05T02:27:45;19.00;99.90
17236;DHT22;8734;59.272;17.780;2022-08-05T02:30:31;19.00;99.90
17236;DHT22;8734;59.272;17.780;2022-08-05T02:33:04;19.00;99.90
17236;DHT22;8734;59.272;17.780;2022-08-05T02:35:34;19.00;99.90
17236;DHT22;8734;59.272;17.780;2022-08-05T02:38:17;19.00;99.90
17236;DHT22;8734;59.272;17.780;2022-08-05T02:40:53;19.00;99.90
17236;DHT22;8734;59.272;17.780;2022-08-05T02:43:23;18.90;99.90
17236;DHT22;8734;59.272;17.780;2022-08-05T02:45:57;18.90;99.90
17236;DHT22;8734;59.272;17.780;2022-08-05T02:48:28;18.90;99.90
17236;DHT22;8734;59.272;17.780;2022-08-05T02:50:58;18.90;99.90
17236;DHT22;8734;59.272;17.780;2022-08-05T02:53:28;18.90;99.90
17236;DHT22;8734;59.272;17.780;2022-08-05T02:56:07;19.00;99.90
17236;DHT22;8734;59.272;17.780;2022-08-05T02:58:44;19.00;99.90
17236;DHT22;8734;59.272;17.780;2022-08-05T03:01:23;19.00;99.90
17236;DHT22;8734;59.272;17.780;2022-08-05T03:03:55;19.00;99.90
17236;DHT22;8734;59.272;17.780;2022-08-05T03:06:35;19.00;99.90
17236;DHT22;8734;59.272;17.780;2022-08-05T03:09:24;19.10;99.90
17236;DHT22;8734;59.272;17.780;2022-08-05T03:12:05;19.00;99.90
17236;DHT22;8734;59.272;17.780;2022-08-05T03:14:34;19.10;99.90
17236;DHT22;8734;59.272;17.780;2022-08-05T03:17:13;19.10;99.90
17236;DHT22;8734;59.272;17.780;2022-08-05T03:19:41;19.10;99.90
17236;DHT22;8734;59.272;17.780;2022-08-05T03:22:11;19.10;99.90
17236;DHT22;8734;59.272;17.780;2022-08-05T03:24:46;19.10;99.90
17236;DHT22;8734;59.272;17.780;2022-08-05T03:27:18;19.10;99.90
17236;DHT22;8734;59.272;17.780;2022-08-05T03:29:47;19.10;99.90
17236;DHT22;8734;59.272;17.780;2022-08-05T03:32:37;19.20;99.90
17236;DHT22;8734;59.272;17.780;2022-08-05T03:35:07;19.30;99.90
17236;DHT22;8734;59.272;17.780;2022-08-05T03:37:35;19.20;99.90
17236;DHT22;8734;59.272;17.780;2022-08-05T03:40:13;19.20;99.90
17236;DHT22;8734;59.272;17.780;2022-08-05T03:42:57;19.20;99.90
17236;DHT22;8734;59.272;17.780;2022-08-05T03:45:42;19.30;99.90
17236;DHT22;8734;59.272;17.780;2022-08-05T03:48:26;19.20;99.90
17236;DHT22;8734;59.272;17.780;2022-08-05T03:51:00;19.10;99.90
17236;DHT22;8734;59.272;17.780;2022-08-05T03:53:54;19.10;99.90
17236;DHT22;8734;59.272;17.780;2022-08-05T03:56:44;19.10;99.90
17236;DHT22;8734;59.272;17.780;2022-08-05T03:59:19;19.00;99.90
17236;DHT22;8734;59.272;17.780;2022-08-05T04:01:51;19.00;99.90
17236;DHT22;8734;59.272;17.780;2022-08-05T04:04:27;19.00;99.90
17236;DHT22;8734;59.272;17.780;2022-08-05T04:06:57;19.00;99.90
17236;DHT22;8734;59.272;17.780;2022-08-05T04:09:27;18.90;99.90
17236;DHT22;8734;59.272;17.780;2022-08-05T04:12:02;18.90;99.90
17236;DHT22;8734;59.272;17.780;2022-08-05T04:14:51;18.80;99.90
17236;DHT22;8734;59.272;17.780;2022-08-05T04:17:23;18.80;99.90
17236;DHT22;8734;59.272;17.780;2022-08-05T04:20:18;18.80;99.90
17236;DHT22;8734;59.272;17.780;2022-08-05T04:22:49;18.80;99.90
17236;DHT22;8734;59.272;17.780;2022-08-05T04:25:17;18.80;99.90
17236;DHT22;8734;59.272;17.780;2022-08-05T04:28:04;18.80;99.90
17236;DHT22;8734;59.272;17.780;2022-08-05T04:30:38;18.90;99.90
17236;DHT22;8734;59.272;17.780;2022-08-05T04:33:08;18.80;99.90
17236;DHT22;8734;59.272;17.780;2022-08-05T04:35:39;18.80;99.90
17236;DHT22;8734;59.272;17.780;2022-08-05T04:38:27;18.90;99.90
17236;DHT22;8734;59.272;17.780;2022-08-05T04:41:05;18.80;99.90
17236;DHT22;8734;59.272;17.780;2022-08-05T04:43:36;18.90;99.90
17236;DHT22;8734;59.272;17.780;2022-08-05T04:46:14;18.90;99.90
17236;DHT22;8734;59.272;17.780;2022-08-05T04:48:54;19.00;99.90
17236;DHT22;8734;59.272;17.780;2022-08-05T04:51:26;19.00;99.90
17236;DHT22;8734;59.272;17.780;2022-08-05T04:53:56;19.00;99.90
17236;DHT22;8734;59.272;17.780;2022-08-05T04:56:27;19.00;99.90
17236;DHT22;8734;59.272;17.780;2022-08-05T04:59:01;18.90;99.90
17236;DHT22;8734;59.272;17.780;2022-08-05T05:01:49;18.90;99.90
17236;DHT22;8734;59.272;17.780;2022-08-05T05:04:38;18.80;99.90
17236;DHT22;8734;59.272;17.780;2022-08-05T05:07:15;18.90;99.90
17236;DHT22;8734;59.272;17.780;2022-08-05T05:09:49;18.80;99.90
17236;DHT22;8734;59.272;17.780;2022-08-05T05:12:20;18.80;99.90
17236;DHT22;8734;59.272;17.780;2022-08-05T05:14:53;18.90;99.90
17236;DHT22;8734;59.272;17.780;2022-08-05T05:17:21;18.90;99.90
17236;DHT22;8734;59.272;17.780;2022-08-05T05:20:10;19.00;99.90
17236;DHT22;8734;59.272;17.780;2022-08-05T05:22:41;19.00;99.90
17236;DHT22;8734;59.272;17.780;2022-08-05T05:25:10;19.10;99.90
17236;DHT22;8734;59.272;17.780;2022-08-05T05:27:43;19.10;99.90
17236;DHT22;8734;59.272;17.780;2022-08-05T05:30:20;19.20;99.90
17236;DHT22;8734;59.272;17.780;2022-08-05T05:32:57;19.30;99.90
17236;DHT22;8734;59.272;17.780;2022-08-05T05:35:42;19.30;99.90
17236;DHT22;8734;59.272;17.780;2022-08-05T05:38:12;19.30;99.90
17236;DHT22;8734;59.272;17.780;2022-08-05T05:40:52;19.40;99.90
17236;DHT22;8734;59.272;17.780;2022-08-05T05:43:22;19.50;99.90
17236;DHT22;8734;59.272;17.780;2022-08-05T05:46:10;19.60;99.90
17236;DHT22;8734;59.272;17.780;2022-08-05T05:48:45;19.70;99.90
17236;DHT22;8734;59.272;17.780;2022-08-05T05:51:19;19.80;99.90
17236;DHT22;8734;59.272;17.780;2022-08-05T05:53:50;19.80;99.90
17236;DHT22;8734;59.272;17.780;2022-08-05T05:56:26;19.90;99.90
17236;DHT22;8734;59.272;17.780;2022-08-05T05:59:01;20.10;99.90
17236;DHT22;8734;59.272;17.780;2022-08-05T06:01:31;20.10;99.90
17236;DHT22;8734;59.272;17.780;2022-08-05T06:04:05;20.20;99.90
17236;DHT22;8734;59.272;17.780;2022-08-05T06:06:38;20.40;99.90
17236;DHT22;8734;59.272;17.780;2022-08-05T06:09:10;20.50;99.90
17236;DHT22;8734;59.272;17.780;2022-08-05T06:11:44;20.50;99.90
17236;DHT22;8734;59.272;17.780;2022-08-05T06:14:28;20.50;99.90
17236;DHT22;8734;59.272;17.780;2022-08-05T06:16:57;20.50;99.90
17236;DHT22;8734;59.272;17.780;2022-08-05T06:19:28;20.60;99.90
17236;DHT22;8734;59.272;17.780;2022-08-05T06:22:01;20.60;99.90
17236;DHT22;8734;59.272;17.780;2022-08-05T06:24:35;20.70;99.90
17236;DHT22;8734;59.272;17.780;2022-08-05T06:27:14;20.70;99.90
17236;DHT22;8734;59.272;17.780;2022-08-05T06:30:03;20.70;99.90
17236;DHT22;8734;59.272;17.780;2022-08-05T06:32:47;20.70;99.90
17236;DHT22;8734;59.272;17.780;2022-08-05T06:35:16;20.80;99.90
17236;DHT22;8734;59.272;17.780;2022-08-05T06:38:05;20.80;99.90
17236;DHT22;8734;59.272;17.780;2022-08-05T06:40:41;20.90;99.90
17236;DHT22;8734;59.272;17.780;2022-08-05T06:43:10;21.00;99.90
17236;DHT22;8734;59.272;17.780;2022-08-05T06:45:59;21.00;99.90
17236;DHT22;8734;59.272;17.780;2022-08-05T06:48:33;21.10;99.90
17236;DHT22;8734;59.272;17.780;2022-08-05T06:51:22;21.20;99.90
17236;DHT22;8734;59.272;17.780;2022-08-05T06:53:56;21.40;99.90
17236;DHT22;8734;59.272;17.780;2022-08-05T06:56:27;21.50;99.90
17236;DHT22;8734;59.272;17.780;2022-08-05T06:58:55;21.50;99.90
17236;DHT22;8734;59.272;17.780;2022-08-05T07:01:23;21.60;99.90
17236;DHT22;8734;59.272;17.780;2022-08-05T07:03:59;21.60;99.90
17236;DHT22;8734;59.272;17.780;2022-08-05T07:06:29;21.70;99.90
17236;DHT22;8734;59.272;17.780;2022-08-05T07:08:58;21.70;99.90
17236;DHT22;8734;59.272;17.780;2022-08-05T07:11:32;21.80;99.90
17236;DHT22;8734;59.272;17.780;2022-08-05T07:14:06;21.90;99.90
17236;DHT22;8734;59.272;17.780;2022-08-05T07:16:57;21.90;99.90
17236;DHT22;8734;59.272;17.780;2022-08-05T07:19:48;22.00;99.90
17236;DHT22;8734;59.272;17.780;2022-08-05T07:22:39;22.10;99.90
17236;DHT22;8734;59.272;17.780;2022-08-05T07:25:08;22.20;99.90
17236;DHT22;8734;59.272;17.780;2022-08-05T07:27:58;22.30;99.90
17236;DHT22;8734;59.272;17.780;2022-08-05T07:30:36;22.60;99.90
17236;DHT22;8734;59.272;17.780;2022-08-05T07:33:07;23.00;99.90
17236;DHT22;8734;59.272;17.780;2022-08-05T07:35:42;23.50;99.90
17236;DHT22;8734;59.272;17.780;2022-08-05T07:38:31;23.90;99.90
17236;DHT22;8734;59.272;17.780;2022-08-05T07:41:13;24.20;99.90
17236;DHT22;8734;59.272;17.780;2022-08-05T07:44:05;24.60;99.90
17236;DHT22;8734;59.272;17.780;2022-08-05T07:46:45;24.90;99.90
17236;DHT22;8734;59.272;17.780;2022-08-05T07:49:16;25.20;99.90
17236;DHT22;8734;59.272;17.780;2022-08-05T07:51:45;25.40;99.90
17236;DHT22;8734;59.272;17.780;2022-08-05T07:54:21;25.60;99.90
17236;DHT22;8734;59.272;17.780;2022-08-05T07:56:59;26.00;99.90
17236;DHT22;8734;59.272;17.780;2022-08-05T07:59:50;25.80;99.90
17236;DHT22;8734;59.272;17.780;2022-08-05T08:02:23;26.00;99.90
17236;DHT22;8734;59.272;17.780;2022-08-05T08:05:12;26.00;99.90
17236;DHT22;8734;59.272;17.780;2022-08-05T08:07:43;26.10;99.90
17236;DHT22;8734;59.272;17.780;2022-08-05T08:10:26;26.40;99.90
17236;DHT22;8734;59.272;17.780;2022-08-05T08:12:56;26.50;99.90
17236;DHT22;8734;59.272;17.780;2022-08-05T08:15:26;26.60;99.90
17236;DHT22;8734;59.272;17.780;2022-08-05T08:18:14;26.00;99.90
17236;DHT22;8734;59.272;17.780;2022-08-05T08:20:47;25.50;99.90
17236;DHT22;8734;59.272;17.780;2022-08-05T08:23:30;25.50;99.90
17236;DHT22;8734;59.272;17.780;2022-08-05T08:26:19;25.60;99.90
17236;DHT22;8734;59.272;17.780;2022-08-05T08:28:56;25.90;99.90
17236;DHT22;8734;59.272;17.780;2022-08-05T08:31:46;25.90;99.90
17236;DHT22;8734;59.272;17.780;2022-08-05T08:34:14;25.90;99.90
17236;DHT22;8734;59.272;17.780;2022-08-05T08:36:44;26.20;99.90
17236;DHT22;8734;59.272;17.780;2022-08-05T08:39:21;26.30;99.90
17236;DHT22;8734;59.272;17.780;2022-08-05T08:41:51;26.60;99.90
17236;DHT22;8734;59.272;17.780;2022-08-05T08:44:29;26.40;99.90
17236;DHT22;8734;59.272;17.780;2022-08-05T08:47:22;26.30;99.90
17236;DHT22;8734;59.272;17.780;2022-08-05T08:50:11;26.80;99.90
17236;DHT22;8734;59.272;17.780;2022-08-05T08:53:04;27.20;99.90
17236;DHT22;8734;59.272;17.780;2022-08-05T08:55:39;27.30;99.90
17236;DHT22;8734;59.272;17.780;2022-08-05T08:58:27;27.50;99.90
17236;DHT22;8734;59.272;17.780;2022-08-05T09:01:10;28.00;99.90
17236;DHT22;8734;59.272;17.780;2022-08-05T09:03:45;27.90;99.90
17236;DHT22;8734;59.272;17.780;2022-08-05T09:06:14;28.50;99.90
17236;DHT22;8734;59.272;17.780;2022-08-05T09:08:50;28.60;99.90
17236;DHT22;8734;59.272;17.780;2022-08-05T09:11:18;28.50;99.90
17236;DHT22;8734;59.272;17.780;2022-08-05T09:14:07;28.40;99.90
17236;DHT22;8734;59.272;17.780;2022-08-05T09:16:56;28.50;99.90
17236;DHT22;8734;59.272;17.780;2022-08-05T09:19:26;28.70;99.90
17236;DHT22;8734;59.272;17.780;2022-08-05T09:22:15;29.30;99.90
17236;DHT22;8734;59.272;17.780;2022-08-05T09:24:58;29.10;99.90
17236;DHT22;8734;59.272;17.780;2022-08-05T09:27:32;28.60;99.90
17236;DHT22;8734;59.272;17.780;2022-08-05T09:30:21;28.00;99.90
17236;DHT22;8734;59.272;17.780;2022-08-05T09:32:49;27.70;99.90
17236;DHT22;8734;59.272;17.780;2022-08-05T09:35:21;27.90;99.90
17236;DHT22;8734;59.272;17.780;2022-08-05T09:37:54;27.60;99.90
17236;DHT22;8734;59.272;17.780;2022-08-05T09:40:44;27.30;99.90
17236;DHT22;8734;59.272;17.780;2022-08-05T09:43:30;27.10;99.90
17236;DHT22;8734;59.272;17.780;2022-08-05T09:46:23;27.20;99.90
17236;DHT22;8734;59.272;17.780;2022-08-05T09:48:55;27.80;99.90
17236;DHT22;8734;59.272;17.780;2022-08-05T09:51:45;28.00;99.90
17236;DHT22;8734;59.272;17.780;2022-08-05T09:54:16;27.70;99.90
17236;DHT22;8734;59.272;17.780;2022-08-05T09:56:55;27.50;99.90
17236;DHT22;8734;59.272;17.780;2022-08-05T09:59:28;27.20;99.90
17236;DHT22;8734;59.272;17.780;2022-08-05T10:02:03;27.10;99.90
17236;DHT22;8734;59.272;17.780;2022-08-05T10:04:35;26.90;99.90
17236;DHT22;8734;59.272;17.780;2022-08-05T10:07:08;26.70;99.90
17236;DHT22;8734;59.272;17.780;2022-08-05T10:09:56;26.70;99.90
17236;DHT22;8734;59.272;17.780;2022-08-05T10:12:46;27.00;99.90
17236;DHT22;8734;59.272;17.780;2022-08-05T10:15:19;27.00;99.90
17236;DHT22;8734;59.272;17.780;2022-08-05T10:18:06;26.90;99.90
17236;DHT22;8734;59.272;17.780;2022-08-05T10:20:38;26.50;99.90
17236;DHT22;8734;59.272;17.780;2022-08-05T10:23:11;26.20;99.90
17236;DHT22;8734;59.272;17.780;2022-08-05T10:26:03;25.90;99.90
17236;DHT22;8734;59.272;17.780;2022-08-05T10:28:33;25.60;99.90
17236;DHT22;8734;59.272;17.780;2022-08-05T10:31:03;25.50;99.90
17236;DHT22;8734;59.272;17.780;2022-08-05T10:33:51;25.70;99.90
17236;DHT22;8734;59.272;17.780;2022-08-05T10:36:20;26.10;99.90
17236;DHT22;8734;59.272;17.780;2022-08-05T10:38:59;26.60;99.90
17236;DHT22;8734;59.272;17.780;2022-08-05T10:41:45;26.50;99.90
17236;DHT22;8734;59.272;17.780;2022-08-05T10:44:18;26.10;99.90
17236;DHT22;8734;59.272;17.780;2022-08-05T10:46:49;25.80;99.90
17236;DHT22;8734;59.272;17.780;2022-08-05T10:49:21;25.60;99.90
17236;DHT22;8734;59.272;17.780;2022-08-05T10:51:55;25.50;99.90
17236;DHT22;8734;59.272;17.780;2022-08-05T10:54:46;25.30;99.90
17236;DHT22;8734;59.272;17.780;2022-08-05T10:57:26;25.30;99.90
17236;DHT22;8734;59.272;17.780;2022-08-05T11:00:10;25.20;99.90
17236;DHT22;8734;59.272;17.780;2022-08-05T11:03:08;25.00;99.90
17236;DHT22;8734;59.272;17.780;2022-08-05T11:06:08;24.80;99.90
17236;DHT22;8734;59.272;17.780;2022-08-05T11:09:11;24.80;99.90
17236;DHT22;8734;59.272;17.780;2022-08-05T11:11:44;24.60;99.90
17236;DHT22;8734;59.272;17.780;2022-08-05T11:14:24;24.50;99.90
17236;DHT22;8734;59.272;17.780;2022-08-05T11:17:28;24.60;99.90
17236;DHT22;8734;59.272;17.780;2022-08-05T11:20:42;24.50;99.90
17236;DHT22;8734;59.272;17.780;2022-08-05T11:23:34;24.50;99.90
17236;DHT22;8734;59.272;17.780;2022-08-05T11:26:25;24.40;99.90
17236;DHT22;8734;59.272;17.780;2022-08-05T11:29:01;24.40;99.90
17236;DHT22;8734;59.272;17.780;2022-08-05T11:31:41;24.30;99.90
17236;DHT22;8734;59.272;17.780;2022-08-05T11:34:36;24.20;99.90
17236;DHT22;8734;59.272;17.780;2022-08-05T11:37:05;24.10;99.90
17236;DHT22;8734;59.272;17.780;2022-08-05T11:39:53;24.00;99.90
17236;DHT22;8734;59.272;17.780;2022-08-05T11:42:31;23.90;99.90
17236;DHT22;8734;59.272;17.780;2022-08-05T11:45:08;23.90;99.90
17236;DHT22;8734;59.272;17.780;2022-08-05T11:47:56;23.90;99.90
17236;DHT22;8734;59.272;17.780;2022-08-05T11:50:25;23.80;99.90
17236;DHT22;8734;59.272;17.780;2022-08-05T11:52:54;23.80;99.90
17236;DHT22;8734;59.272;17.780;2022-08-05T11:55:24;23.80;99.90
17236;DHT22;8734;59.272;17.780;2022-08-05T11:57:58;23.60;99.90
17236;DHT22;8734;59.272;17.780;2022-08-05T12:00:39;23.50;99.90
17236;DHT22;8734;59.272;17.780;2022-08-05T12:03:16;23.50;99.90
17236;DHT22;8734;59.272;17.780;2022-08-05T12:06:02;23.40;99.90
17236;DHT22;8734;59.272;17.780;2022-08-05T12:08:42;23.40;99.90
17236;DHT22;8734;59.272;17.780;2022-08-05T12:11:18;23.30;99.90
17236;DHT22;8734;59.272;17.780;2022-08-05T12:13:54;23.10;99.90
17236;DHT22;8734;59.272;17.780;2022-08-05T12:16:34;23.00;99.90
17236;DHT22;8734;59.272;17.780;2022-08-05T12:19:05;22.80;99.90
17236;DHT22;8734;59.272;17.780;2022-08-05T12:21:35;22.60;99.90
17236;DHT22;8734;59.272;17.780;2022-08-05T12:24:10;22.40;99.90
17236;DHT22;8734;59.272;17.780;2022-08-05T12:26:45;22.20;99.90
17236;DHT22;8734;59.272;17.780;2022-08-05T12:29:16;22.10;99.90
17236;DHT22;8734;59.272;17.780;2022-08-05T12:31:51;21.80;99.90
17236;DHT22;8734;59.272;17.780;2022-08-05T12:34:22;21.60;99.90
17236;DHT22;8734;59.272;17.780;2022-08-05T12:36:55;21.50;99.90
17236;DHT22;8734;59.272;17.780;2022-08-05T12:39:25;21.40;99.90
17236;DHT22;8734;59.272;17.780;2022-08-05T12:42:07;21.40;99.90
17236;DHT22;8734;59.272;17.780;2022-08-05T12:44:41;21.30;99.90
17236;DHT22;8734;59.272;17.780;2022-08-05T12:47:12;21.20;99.90
17236;DHT22;8734;59.272;17.780;2022-08-05T12:49:45;21.30;99.90
17236;DHT22;8734;59.272;17.780;2022-08-05T12:52:32;21.30;99.90
17236;DHT22;8734;59.272;17.780;2022-08-05T12:55:22;21.20;99.90
17236;DHT22;8734;59.272;17.780;2022-08-05T12:57:53;21.00;99.90
17236;DHT22;8734;59.272;17.780;2022-08-05T13:00:44;20.90;99.90
17236;DHT22;8734;59.272;17.780;2022-08-05T13:03:35;20.80;99.90
17236;DHT22;8734;59.272;17.780;2022-08-05T13:06:14;20.70;99.90
17236;DHT22;8734;59.272;17.780;2022-08-05T13:08:45;20.60;99.90
17236;DHT22;8734;59.272;17.780;2022-08-05T13:11:21;20.60;99.90
17236;DHT22;8734;59.272;17.780;2022-08-05T13:14:22;20.50;99.90
17236;DHT22;8734;59.272;17.780;2022-08-05T13:17:07;20.40;99.90
17236;DHT22;8734;59.272;17.780;2022-08-05T13:19:37;20.50;99.90
17236;DHT22;8734;59.272;17.780;2022-08-05T13:22:20;20.50;99.90
17236;DHT22;8734;59.272;17.780;2022-08-05T13:24:58;20.50;99.90
17236;DHT22;8734;59.272;17.780;2022-08-05T13:27:34;20.60;99.90
17236;DHT22;8734;59.272;17.780;2022-08-05T13:30:07;20.60;99.90
17236;DHT22;8734;59.272;17.780;2022-08-05T13:32:56;20.60;99.90
17236;DHT22;8734;59.272;17.780;2022-08-05T13:35:29;20.60;99.90
17236;DHT22;8734;59.272;17.780;2022-08-05T13:38:18;20.70;99.90
17236;DHT22;8734;59.272;17.780;2022-08-05T13:40:59;20.70;99.90
17236;DHT22;8734;59.272;17.780;2022-08-05T13:43:29;20.70;99.90
17236;DHT22;8734;59.272;17.780;2022-08-05T13:46:17;20.60;99.90
17236;DHT22;8734;59.272;17.780;2022-08-05T13:49:06;20.60;99.90
17236;DHT22;8734;59.272;17.780;2022-08-05T13:51:39;20.50;99.90
17236;DHT22;8734;59.272;17.780;2022-08-05T13:54:13;20.40;99.90
17236;DHT22;8734;59.272;17.780;2022-08-05T13:56:43;20.40;99.90
17236;DHT22;8734;59.272;17.780;2022-08-05T13:59:18;20.40;99.90
17236;DHT22;8734;59.272;17.780;2022-08-05T14:01:50;20.30;99.90
17236;DHT22;8734;59.272;17.780;2022-08-05T14:04:24;20.30;99.90
17236;DHT22;8734;59.272;17.780;2022-08-05T14:07:18;20.30;99.90
17236;DHT22;8734;59.272;17.780;2022-08-05T14:10:09;20.20;99.90
17236;DHT22;8734;59.272;17.780;2022-08-05T14:12:37;20.10;99.90
17236;DHT22;8734;59.272;17.780;2022-08-05T14:15:15;20.00;99.90
17236;DHT22;8734;59.272;17.780;2022-08-05T14:18:04;20.00;99.90
17236;DHT22;8734;59.272;17.780;2022-08-05T14:20:45;20.00;99.90
17236;DHT22;8734;59.272;17.780;2022-08-05T14:23:15;20.00;99.90
17236;DHT22;8734;59.272;17.780;2022-08-05T14:25:51;20.00;99.90
17236;DHT22;8734;59.272;17.780;2022-08-05T14:28:20;20.00;99.90
17236;DHT22;8734;59.272;17.780;2022-08-05T14:30:53;20.00;99.90
17236;DHT22;8734;59.272;17.780;2022-08-05T14:33:21;20.00;99.90
17236;DHT22;8734;59.272;17.780;2022-08-05T14:35:50;20.00;99.90
17236;DHT22;8734;59.272;17.780;2022-08-05T14:38:22;20.00;99.90
17236;DHT22;8734;59.272;17.780;2022-08-05T14:41:00;20.00;99.90
17236;DHT22;8734;59.272;17.780;2022-08-05T14:43:33;20.00;99.90
17236;DHT22;8734;59.272;17.780;2022-08-05T14:46:22;20.10;99.90
17236;DHT22;8734;59.272;17.780;2022-08-05T14:48:55;20.10;99.90
17236;DHT22;8734;59.272;17.780;2022-08-05T14:51:25;20.00;99.90
17236;DHT22;8734;59.272;17.780;2022-08-05T14:53:58;20.10;99.90
17236;DHT22;8734;59.272;17.780;2022-08-05T14:56:47;20.10;99.90
17236;DHT22;8734;59.272;17.780;2022-08-05T14:59:19;20.10;99.90
17236;DHT22;8734;59.272;17.780;2022-08-05T15:01:48;20.10;99.90
17236;DHT22;8734;59.272;17.780;2022-08-05T15:04:20;20.10;99.90
17236;DHT22;8734;59.272;17.780;2022-08-05T15:06:53;20.10;99.90
17236;DHT22;8734;59.272;17.780;2022-08-05T15:09:23;20.10;99.90
17236;DHT22;8734;59.272;17.780;2022-08-05T15:12:11;20.10;99.90
17236;DHT22;8734;59.272;17.780;2022-08-05T15:14:53;20.00;99.90
17236;DHT22;8734;59.272;17.780;2022-08-05T15:17:22;20.00;99.90
17236;DHT22;8734;59.272;17.780;2022-08-05T15:20:11;20.00;99.90
17236;DHT22;8734;59.272;17.780;2022-08-05T15:22:45;20.00;99.90
17236;DHT22;8734;59.272;17.780;2022-08-05T15:25:22;20.10;99.90
17236;DHT22;8734;59.272;17.780;2022-08-05T15:28:12;20.10;99.90
17236;DHT22;8734;59.272;17.780;2022-08-05T15:30:42;20.10;99.90
17236;DHT22;8734;59.272;17.780;2022-08-05T15:33:12;20.10;99.90
17236;DHT22;8734;59.272;17.780;2022-08-05T15:36:02;20.00;99.90
17236;DHT22;8734;59.272;17.780;2022-08-05T15:38:31;20.00;99.90
17236;DHT22;8734;59.272;17.780;2022-08-05T15:41:09;20.00;99.90
17236;DHT22;8734;59.272;17.780;2022-08-05T15:43:50;20.00;99.90
17236;DHT22;8734;59.272;17.780;2022-08-05T15:46:21;19.90;99.90
17236;DHT22;8734;59.272;17.780;2022-08-05T15:48:51;19.80;99.90
17236;DHT22;8734;59.272;17.780;2022-08-05T15:51:28;19.80;99.90
17236;DHT22;8734;59.272;17.780;2022-08-05T15:54:17;19.80;99.90
17236;DHT22;8734;59.272;17.780;2022-08-05T15:57:01;19.90;99.90
17236;DHT22;8734;59.272;17.780;2022-08-05T15:59:34;20.10;99.90
17236;DHT22;8734;59.272;17.780;2022-08-05T16:02:04;20.10;99.90
17236;DHT22;8734;59.272;17.780;2022-08-05T16:04:45;20.20;99.90
17236;DHT22;8734;59.272;17.780;2022-08-05T16:07:14;20.20;99.90
17236;DHT22;8734;59.272;17.780;2022-08-05T16:09:43;20.20;99.90
17236;DHT22;8734;59.272;17.780;2022-08-05T16:12:13;20.20;99.90
17236;DHT22;8734;59.272;17.780;2022-08-05T16:14:42;20.20;99.90
17236;DHT22;8734;59.272;17.780;2022-08-05T16:17:12;20.10;99.90
17236;DHT22;8734;59.272;17.780;2022-08-05T16:19:41;20.10;99.90
17236;DHT22;8734;59.272;17.780;2022-08-05T16:22:30;20.00;99.90
17236;DHT22;8734;59.272;17.780;2022-08-05T16:25:00;19.80;99.90
17236;DHT22;8734;59.272;17.780;2022-08-05T16:27:36;19.80;99.90
17236;DHT22;8734;59.272;17.780;2022-08-05T16:30:25;19.80;99.90
17236;DHT22;8734;59.272;17.780;2022-08-05T16:32:55;19.80;99.90
17236;DHT22;8734;59.272;17.780;2022-08-05T16:35:24;19.80;99.90